Latest Weather Observations for Canberra

IDN60901

Issued at 4:11 am EDT Saturday 10 December 2016 (issued every 10 minutes, with the page automatically refreshed every 10 minutes)

About weather observations | Map of Canberra area stations | Latest observations for Canberra area | Other Formats
Station Details ID: 070351 Name: CANBERRA AIRPORT Lat: -35.31 Lon: 149.20 Height: 577.05 m
Data from the previous 72 hours. | See also: Recent months at Canberra
Date/Time
EDT
Temp
°C
App
Temp
°C
Dew
Point
°C
Rel
Hum
%
Delta-T
°C
Wind Press
QNH
hPa
Press
MSL
hPa
Rain since
9am
mm
Dir  Spd
km/h
Gust
km/h
Spd
kts
Gust
kts
10/04:00am 9.5 7.4 8.3 92 0.6 SE 9 13 5 7 1020.3 1018.2 0.0
10/03:30am 8.4 5.7 7.3 93 0.5 SE 11 13 6 7 1020.2 1018.1 0.0
10/03:00am 7.6 5.0 6.2 91 0.7 SSE 9 11 5 6 1020.0 1017.9 0.0
10/02:30am 8.8 6.3 6.4 85 1.1 SSE 9 11 5 6 1019.7 1017.7 0.0
10/02:00am 9.7 7.3 7.1 84 1.3 SSE 9 13 5 7 1019.6 1017.6 0.0
10/01:30am 10.9 9.2 7.4 79 1.7 SSW 6 11 3 6 1019.5 1017.4 0.0
10/01:00am 11.0 8.3 7.5 79 1.7 ENE 11 17 6 9 1019.2 1017.1 0.0
10/12:30am 11.1 7.3 7.4 78 1.8 E 17 22 9 12 1019.1 1017.0 0.0
10/12:00am 11.4 7.1 7.1 75 2.1 E 19 26 10 14 1019.0 1016.9 0.0
 
Date/Time
EDT
Temp
°C
App
Temp
°C
Dew
Point
°C
Rel
Hum
%
Delta-T
°C
Wind Press
QNH
hPa
Press
MSL
hPa
Rain since
9am
mm
Dir  Spd
km/h
Gust
km/h
Spd
kts
Gust
kts
09/11:30pm 11.6 7.7 6.9 73 2.3 E 17 24 9 13 1018.9 1016.8 0.0
09/11:00pm 10.9 7.5 5.9 71 2.4 E 13 15 7 8 1018.6 1016.5 0.0
09/10:30pm 11.5 7.9 5.2 65 3.0 ENE 13 15 7 8 1018.3 1016.2 0.0
09/10:00pm 12.1 9.4 5.5 64 3.2 N 9 11 5 6 1018.0 1015.8 0.0
09/09:30pm 13.8 10.4 5.7 58 4.0 NNW 13 17 7 9 1017.4 1015.3 0.0
09/09:00pm 14.4 10.5 5.2 54 4.5 NW 15 22 8 12 1016.7 1014.6 0.0
09/08:30pm 16.3 12.0 5.3 48 5.4 WNW 17 24 9 13 1016.2 1014.0 0.0
09/08:00pm 17.4 13.0 4.7 43 6.2 WNW 17 30 9 16 1015.5 1013.4 0.0
09/07:30pm 18.9 14.9 5.0 40 6.9 W 15 19 8 10 1015.1 1013.0 0.0
09/07:00pm 19.3 13.6 5.0 39 7.2 WNW 24 35 13 19 1014.5 1012.3 0.0
09/06:30pm 20.0 14.7 4.9 37 7.6 WNW 22 30 12 16 1013.9 1011.8 0.0
09/06:00pm 20.0 15.1 4.9 37 7.6 WNW 20 33 11 18 1013.3 1011.1 0.0
09/05:30pm 19.4 12.8 4.4 37 7.4 WNW 28 35 15 19 1013.0 1010.8 0.0
09/05:00pm 20.3 14.4 3.9 34 8.1 WNW 24 37 13 20 1012.9 1010.7 0.0
09/04:30pm 20.7 14.9 4.3 34 8.2 WNW 24 33 13 18 1012.7 1010.5 0.0
09/04:00pm 19.9 13.3 4.4 36 7.7 WNW 28 35 15 19 1012.2 1010.1 0.0
09/03:30pm 19.8 13.1 3.9 35 7.8 WNW 28 37 15 20 1012.0 1009.9 0.0
09/03:00pm 19.7 12.2 4.2 36 7.7 NW 33 46 18 25 1011.9 1009.8 0.0
09/02:30pm 19.4 12.8 4.0 36 7.6 WNW 28 35 15 19 1012.0 1009.9 0.0
09/02:00pm 19.3 12.0 4.3 37 7.4 WNW 32 44 17 24 1011.8 1009.6 0.0
09/01:30pm 18.5 11.3 3.2 36 7.3 WNW 30 41 16 22 1011.7 1009.5 0.0
09/01:00pm 19.2 12.2 4.2 37 7.4 WNW 30 44 16 24 1011.4 1009.2 0.0
09/12:30pm 18.2 10.8 4.0 39 6.9 NW 32 43 17 23 1011.2 1009.0 0.0
09/12:00pm 18.2 11.2 4.0 39 6.9 NW 30 39 16 21 1011.1 1008.9 0.0
09/11:30am 18.0 12.0 3.5 38 7.0 NW 24 33 13 18 1011.1 1008.9 0.0
09/11:00am 17.8 10.8 2.2 35 7.3 NW 28 37 15 20 1010.8 1008.6 0.0
09/10:30am 16.3 9.9 1.2 36 6.8 WNW 24 33 13 18 1010.4 1008.3 0.0
09/10:00am 15.7 9.6 2.5 41 6.1 WNW 24 32 13 17 1010.0 1007.8 0.0
09/09:30am 15.1 8.3 3.0 44 5.6 WNW 28 37 15 20 1009.8 1007.6 0.0
09/09:00am 14.8 8.3 4.5 50 5.0 NW 28 37 15 20 1009.7 1007.5 2.0
09/08:30am 14.1 8.3 4.4 52 4.6 WNW 24 35 13 19 1009.7 1007.5 2.0
09/08:00am 13.8 7.4 5.2 56 4.2 WNW 28 37 15 20 1009.1 1006.9 2.0
09/07:30am 13.1 7.9 5.5 60 3.7 WNW 22 33 12 18 1008.6 1006.4 2.0
09/07:00am 12.1 7.3 5.7 65 3.1 NW 20 28 11 15 1008.1 1005.9 2.0
09/06:30am 12.2 7.0 5.6 64 3.2 WNW 22 28 12 15 1007.6 1005.4 2.0
09/06:00am 12.1 6.5 5.3 63 3.3 WNW 24 32 13 17 1007.0 1004.7 2.0
09/05:30am 11.4 6.8 6.3 71 2.5 NW 20 28 11 15 1006.5 1004.3 2.0
09/05:00am 11.8 6.3 5.9 67 2.9 NW 24 30 13 16 1005.9 1003.7 2.0
09/04:30am 11.5 6.9 6.6 72 2.4 NNW 20 28 11 15 1005.4 1003.1 2.0
09/04:00am 11.8 6.3 6.1 68 2.8 WNW 24 28 13 15 1005.1 1002.8 2.0
09/03:30am 12.2 7.2 6.3 67 2.9 WNW 22 30 12 16 1004.6 1002.4 2.0
09/03:00am 12.1 7.8 7.0 71 2.5 NW 19 24 10 13 1004.4 1002.2 2.0
09/02:30am 12.5 7.9 6.3 66 3.0 WNW 20 30 11 16 1004.1 1001.8 2.0
09/02:00am 12.6 8.9 6.4 66 3.1 NW 15 22 8 12 1004.0 1001.7 2.0
09/01:30am 13.5 8.6 6.8 64 3.3 WNW 22 41 12 22 1004.0 1001.7 2.0
09/01:15am 13.4 7.4 7.0 65 3.2 WNW 28 46 15 25 1003.9 1001.6 2.0
09/01:00am 13.7 7.7 7.0 64 3.4 WNW 28 43 15 23 1003.9 1001.6 2.0
09/12:30am 13.3 8.8 5.9 61 3.6 NW 19 32 10 17 1004.0 1001.7 2.0
09/12:00am 13.0 9.0 4.7 57 4.0 WNW 15 24 8 13 1004.1 1001.8 2.0
 
Date/Time
EDT
Temp
°C
App
Temp
°C
Dew
Point
°C
Rel
Hum
%
Delta-T
°C
Wind Press
QNH
hPa
Press
MSL
hPa
Rain since
9am
mm
Dir  Spd
km/h
Gust
km/h
Spd
kts
Gust
kts
08/11:30pm 14.0 10.0 5.1 55 4.3 W 15 20 8 11 1004.2 1001.9 2.0
08/11:00pm 14.1 9.4 6.0 58 4.0 W 20 28 11 15 1004.1 1001.8 2.0
08/10:30pm 14.4 8.7 6.7 60 3.9 W 26 33 14 18 1003.8 1001.5 2.0
08/10:00pm 14.8 10.7 8.7 67 3.2 WNW 20 30 11 16 1003.4 1001.1 2.0
08/09:30pm 15.0 11.9 12.1 83 1.6 NW 20 28 11 15 1003.1 1000.9 2.0
08/09:00pm 15.4 12.6 13.1 86 1.3 NW 20 28 11 15 1002.7 1000.4 2.0
08/08:30pm 16.4 12.6 13.7 84 1.6 WNW 26 39 14 21 1002.8 1000.6 1.4
08/08:00pm 17.9 15.0 15.2 84 1.6 NNW 24 37 13 20 1002.2 999.9 0.4
08/07:30pm 18.0 15.9 15.1 83 1.7 NW 20 26 11 14 1001.6 999.3 0.4
08/07:00pm 18.5 15.6 15.2 81 2.0 NW 24 33 13 18 1001.9 999.6 0.2
08/06:30pm 22.1 16.8 12.4 54 5.6 WNW 32 44 17 24 1001.7 999.4 0.0
08/06:00pm 23.7 19.7 11.7 47 7.0 WNW 24 33 13 18 1000.5 998.2 0.0
08/05:30pm 24.3 17.7 11.3 44 7.5 W 37 46 20 25 1000.2 997.9 0.0
08/05:00pm 26.9 20.2 9.7 34 9.8 WNW 35 50 19 27 999.1 996.8 0.0
08/04:30pm 29.1 22.3 7.7 26 11.9 WNW 33 48 18 26 998.6 996.3 0.0
08/04:00pm 30.3 22.7 7.5 24 12.8 NW 37 50 20 27 999.1 996.8 0.0
08/03:37pm 29.1 21.4 8.7 28 11.5 NW 39 57 21 31 999.7 997.3 0.0
08/03:30pm 28.5 19.2 7.7 27 11.5 NNW 46 61 25 33 999.9 997.6 0.0
08/03:26pm 29.6 20.8 8.1 26 12.1 NW 44 61 24 33 1000.0 997.7 0.0
08/03:00pm 30.0 21.8 8.4 26 12.3 WNW 41 59 22 32 1000.7 998.4 0.0
08/02:30pm 29.5 21.5 9.1 28 11.6 NW 41 63 22 34 1001.3 999.1 0.0
08/02:08pm 29.5 23.3 10.1 30 11.2 WNW 33 52 18 28 1001.8 999.5 0.0
08/02:00pm 29.5 22.0 9.6 29 11.5 WNW 39 54 21 29 1002.0 999.7 0.0
08/01:43pm 29.8 22.5 8.8 27 11.9 NW 37 57 20 31 1002.3 1000.0 0.0
08/01:30pm 28.3 21.3 8.6 29 11.1 NW 35 46 19 25 1002.5 1000.2 0.0
08/01:06pm 29.6 22.0 9.2 28 11.7 NW 39 57 21 31 1002.9 1000.7 0.0
08/01:00pm 27.2 19.6 9.1 32 10.2 NW 39 52 21 28 1003.0 1000.8 0.0
08/12:45pm 27.7 21.2 9.0 31 10.6 WNW 33 54 18 29 1003.5 1001.2 0.0
08/12:30pm 28.0 21.6 9.3 31 10.6 NW 33 48 18 26 1003.8 1001.5 0.0
08/12:28pm 28.4 22.2 10.1 32 10.5 NW 33 48 18 26 1003.8 1001.5 0.0
08/12:00pm 27.5 20.6 10.2 34 10.0 NW 37 50 20 27 1004.6 1002.4 0.0
08/11:30am 26.7 19.8 10.4 36 9.4 NNW 37 56 20 30 1005.3 1003.0 0.0
08/11:24am 26.9 20.7 10.2 35 9.6 NW 33 56 18 30 1005.4 1003.1 0.0
08/11:00am 26.3 20.2 10.5 37 9.1 NW 33 46 18 25 1006.0 1003.8 0.0
08/10:30am 25.3 20.2 10.7 40 8.4 NNW 28 35 15 19 1006.4 1004.2 0.0
08/10:19am 24.9 19.9 11.1 42 8.0 NNW 28 46 15 25 1006.7 1004.5 0.0
08/10:00am 23.7 20.9 11.4 46 7.1 NNW 17 28 9 15 1007.1 1004.8 0.0
08/09:30am 21.4 19.9 12.0 55 5.4 WNW 11 17 6 9 1007.7 1005.5 0.0
08/09:00am 19.6 18.6 12.4 63 4.2 N 9 15 5 8 1008.3 1006.1 -
08/08:30am 17.8 17.1 13.3 75 2.6 NNW 9 11 5 6 1008.8 1006.5 -
08/08:00am 16.8 16.7 13.3 80 2.0 ENE 6 9 3 5 1009.1 1006.9 -
08/07:30am 14.0 13.7 13.4 96 0.3 NNW 7 7 4 4 1009.6 1007.4 -
08/07:00am 13.7 13.5 13.5 99 0.1 NNW 7 11 4 6 1010.0 1007.8 -
08/06:30am 12.1 11.0 11.9 99 0.1 ENE 9 11 5 6 1010.3 1008.1 -
08/06:00am 12.1 11.4 11.9 99 0.1 S 7 9 4 5 1010.1 1007.9 -
08/05:30am 12.2 11.5 12.0 99 0.1 SSW 7 11 4 6 1010.3 1008.1 -
08/05:00am 10.8 11.0 10.6 99 0.1 CALM 0 0 0 0 1009.9 1007.7 -
08/04:30am 10.5 10.6 10.3 99 0.1 CALM 0 0 0 0 1010.1 1007.9 -
08/04:00am 10.3 9.6 10.1 99 0.1 NNW 4 7 2 4 1010.4 1008.3 -
08/03:35am 10.8 11.0 10.6 99 0.1 CALM 0 0 0 0 1010.8 1008.6 -
08/03:30am 10.8 11.0 10.5 98 0.2 CALM 0 0 0 0 1010.8 1008.6 -
08/03:00am 11.1 11.4 10.9 99 0.1 CALM 0 4 0 2 1011.2 1009.0 0.0
08/02:30am 11.0 11.2 10.7 98 0.2 CALM 0 0 0 0 1011.8 1009.6 -
08/02:00am 12.6 12.2 12.4 99 0.1 E 6 7 3 4 1012.0 1009.9 -
08/01:30am 12.1 12.7 11.9 99 0.1 CALM 0 0 0 0 1012.7 1010.5 -
08/01:00am 12.3 12.8 11.7 96 0.3 CALM 0 0 0 0 1013.0 1010.8 -
08/12:30am 12.4 13.0 11.8 96 0.3 CALM 0 0 0 0 1013.0 1010.8 -
08/12:00am 12.9 12.4 12.0 94 0.5 SSE 6 7 3 4 1013.2 1011.0 -
 
Date/Time
EDT
Temp
°C
App
Temp
°C
Dew
Point
°C
Rel
Hum
%
Delta-T
°C
Wind Press
QNH
hPa
Press
MSL
hPa
Rain since
9am
mm
Dir  Spd
km/h
Gust
km/h
Spd
kts
Gust
kts
07/11:30pm 13.7 13.8 11.6 87 1.2 E 2 6 1 3 1013.3 1011.1 -
07/11:00pm 15.8 15.5 13.3 85 1.4 ENE 7 9 4 5 1013.3 1011.1 -
07/10:30pm 16.2 15.5 13.1 82 1.8 E 9 15 5 8 1013.5 1011.4 -
07/10:00pm 17.2 16.0 12.7 75 2.6 NE 11 15 6 8 1013.5 1011.4 -
07/09:30pm 16.4 13.5 8.1 58 4.3 E 13 15 7 8 1013.5 1011.4 -
07/09:00pm 16.8 14.1 5.4 47 5.7 NE 9 11 5 6 1013.2 1011.0 0.0
07/08:30pm 18.9 16.5 5.4 41 6.8 NNE 7 9 4 5 1013.2 1011.0 -
07/08:00pm 21.4 17.6 4.0 32 8.7 WNW 13 17 7 9 1013.2 1011.0 -
07/07:30pm 23.7 19.5 3.6 27 10.1 NW 15 20 8 11 1013.1 1010.9 -
07/07:00pm 25.3 20.6 3.3 24 11.1 W 17 24 9 13 1012.9 1010.7 -
07/06:30pm 25.7 20.7 3.6 24 11.2 WNW 19 30 10 16 1012.9 1010.7 -
07/06:00pm 25.8 21.4 4.9 26 10.9 W 17 22 9 12 1012.9 1010.7 -
07/05:30pm 25.9 21.1 4.9 26 10.9 NW 19 30 10 16 1012.9 1010.7 -
07/05:00pm 26.1 21.3 5.7 27 10.8 W 20 32 11 17 1013.0 1010.8 -
07/04:30pm 26.6 20.9 5.0 25 11.3 W 24 35 13 19 1013.3 1011.1 -
07/04:00pm 26.0 21.3 6.1 28 10.6 NW 20 32 11 17 1013.6 1011.5 -
07/03:30pm 26.1 21.5 6.7 29 10.4 W 20 30 11 16 1013.7 1011.6 -
07/03:00pm 25.7 20.6 5.8 28 10.5 NW 22 35 12 19 1014.0 1011.9 -
07/02:30pm 25.5 20.4 6.2 29 10.3 NW 22 35 12 19 1014.3 1012.1 -
07/02:00pm 25.5 21.0 7.1 31 9.9 NW 20 32 11 17 1014.6 1012.4 -
07/01:30pm 24.4 20.2 8.4 36 8.8 NW 20 28 11 15 1015.0 1012.9 -
07/01:00pm 23.4 19.9 7.1 35 8.7 NNW 15 20 8 11 1015.2 1013.1 -
07/12:30pm 23.0 19.2 5.9 33 8.9 NW 15 26 8 14 1015.7 1013.6 -
07/12:00pm 22.6 19.5 8.7 41 7.6 NNW 15 26 8 14 1015.8 1013.7 -
07/11:30am 21.7 18.7 7.5 40 7.6 NNW 13 20 7 11 1016.2 1014.0 -
07/11:00am 21.3 18.7 9.5 47 6.5 NW 13 20 7 11 1016.3 1014.1 0.0
07/10:30am 19.8 17.8 8.8 49 5.9 NNE 9 13 5 7 1016.3 1014.1 0.0
07/10:00am 19.3 17.6 10.0 55 5.1 N 9 13 5 7 1016.3 1014.1 0.0
07/09:30am 18.5 16.8 9.8 57 4.7 NNW 9 17 5 9 1016.4 1014.2 0.0
07/09:00am 18.4 17.5 11.2 63 4.0 NNE 7 11 4 6 1016.4 1014.2 0.2
07/08:30am 16.7 16.4 11.4 71 3.0 NNE 4 9 2 5 1016.6 1014.5 0.2
07/08:00am 15.8 14.9 11.2 74 2.5 SSW 7 9 4 5 1016.7 1014.6 0.2
07/07:30am 15.0 14.3 12.1 83 1.6 S 7 11 4 6 1016.3 1014.1 0.2
07/07:00am 13.1 11.6 10.6 85 1.3 S 9 11 5 6 1016.0 1013.9 0.2
07/06:30am 10.7 10.5 9.1 90 0.8 CALM 0 0 0 0 1015.5 1013.4 0.2
07/06:00am 9.8 8.7 8.6 92 0.6 NNE 4 7 2 4 1015.4 1013.3 0.2
07/05:30am 9.8 9.1 8.4 91 0.7 ENE 2 6 1 3 1015.0 1012.9 0.2
07/05:00am 10.2 8.6 8.8 91 0.7 ESE 7 11 4 6 1014.8 1012.6 0.2
07/04:30am 10.6 9.0 8.7 88 1.0 SE 7 9 4 5 1014.1 1012.0 0.2

Latest Capital City Observations: Canberra | Sydney | Melbourne | Brisbane | Adelaide | Perth | Hobart | Darwin

Other Formats:

Comma delimited format used in spreadsheet applications
http://www.bom.gov.au/fwo/IDN60903/IDN60903.94926.axf

JavaScript Object Notation format (JSON) in row-major order
http://www.bom.gov.au/fwo/IDN60903/IDN60903.94926.json